TimeGMT,TemperatureF,Dew PointF,Humidity,Sea Level PressureIn,VisibilityMPH,Wind Direction,Wind SpeedMPH,Gust SpeedMPH,PrecipitationIn,Events,Conditions,WindDirDegrees,DateUTC
12:50 AM,42.8,35.6,76,29.80,6.2,West,9.2,-,N/A,,Partly Cloudy,270,2012-11-18 00:50:00
1:50 AM,42.8,37.4,81,29.80,6.2,West,11.5,-,N/A,,Partly Cloudy,260,2012-11-18 01:50:00
2:50 AM,43,37,71,29.83,25,West,12.7,,,,Scattered Clouds,260,2012-11-18 02:50:00
2:50 AM,42.8,37.4,81,29.80,6.2,West,12.7,-,N/A,,Partly Cloudy,260,2012-11-18 02:50:00
3:50 AM,42.8,35.6,76,29.83,6.2,West,9.2,-,N/A,,Partly Cloudy,260,2012-11-18 03:50:00
4:50 AM,42.8,35.6,76,29.83,6.2,West,9.2,-,N/A,,Partly Cloudy,270,2012-11-18 04:50:00
5:50 AM,43,37,72,29.85,,West,10.4,,,,,270,2012-11-18 05:50:00
5:50 AM,42.8,37.4,81,29.83,6.2,West,10.4,-,N/A,,Partly Cloudy,270,2012-11-18 05:50:00
6:20 AM,42.8,37.4,81,29.83,6.2,West,8.1,-,N/A,,Partly Cloudy,260,2012-11-18 06:20:00
6:50 AM,42.8,37.4,81,29.83,6.2,West,8.1,-,N/A,,Partly Cloudy,260,2012-11-18 06:50:00
7:20 AM,41.0,37.4,87,29.86,6.2,West,9.2,-,N/A,,Partly Cloudy,260,2012-11-18 07:20:00
7:50 AM,42.8,37.4,81,29.86,6.2,WSW,9.2,-,N/A,,Partly Cloudy,250,2012-11-18 07:50:00
8:20 AM,42.8,37.4,81,29.86,6.2,WSW,8.1,-,N/A,,Partly Cloudy,250,2012-11-18 08:20:00
8:50 AM,44,36,64,29.87,25,WSW,10.4,,,,Scattered Clouds,240,2012-11-18 08:50:00
8:50 AM,44.6,35.6,71,29.86,6.2,WSW,10.4,-,N/A,,Partly Cloudy,240,2012-11-18 08:50:00
9:20 AM,44.6,37.4,76,29.86,6.2,WSW,9.2,-,N/A,,Partly Cloudy,240,2012-11-18 09:20:00
9:50 AM,46.4,37.4,71,29.86,6.2,SW,11.5,-,N/A,,Scattered Clouds,230,2012-11-18 09:50:00
10:20 AM,46.4,35.6,66,29.86,6.2,WSW,12.7,-,N/A,,Scattered Clouds,240,2012-11-18 10:20:00
10:50 AM,46.4,37.4,71,29.86,6.2,WSW,10.4,-,N/A,,Scattered Clouds,240,2012-11-18 10:50:00
11:20 AM,44.6,37.4,76,29.86,6.2,SW,11.5,-,N/A,,Scattered Clouds,230,2012-11-18 11:20:00
11:50 AM,46,36,58,29.87,25,SW,12.7,,,Rain,Light Rain Showers,230,2012-11-18 11:50:00
11:50 AM,46.4,35.6,66,29.86,6.2,WSW,12.7,-,N/A,,Scattered Clouds,240,2012-11-18 11:50:00
12:20 PM,46.4,33.8,62,29.86,6.2,WSW,12.7,-,N/A,,Partly Cloudy,240,2012-11-18 12:20:00
12:50 PM,46.4,35.6,66,29.86,6.2,SW,12.7,-,N/A,,Scattered Clouds,230,2012-11-18 12:50:00
1:20 PM,46.4,35.6,66,29.83,6.2,SW,15.0,-,N/A,,Scattered Clouds,220,2012-11-18 13:20:00
1:50 PM,46.4,35.6,66,29.83,6.2,SSW,16.1,-,N/A,,Partly Cloudy,210,2012-11-18 13:50:00
2:20 PM,46.4,35.6,66,29.83,6.2,SSW,16.1,-,N/A,,Partly Cloudy,210,2012-11-18 14:20:00
2:50 PM,47,36,54,29.84,25,SSW,16.1,,,,Overcast,210,2012-11-18 14:50:00
2:50 PM,46.4,35.6,66,29.83,6.2,SSW,16.1,-,N/A,,Partly Cloudy,210,2012-11-18 14:50:00
3:20 PM,48.2,37.4,66,29.80,6.2,SSW,16.1,-,N/A,,Scattered Clouds,200,2012-11-18 15:20:00
3:50 PM,48.2,35.6,62,29.80,6.2,SSW,19.6,-,N/A,,Scattered Clouds,210,2012-11-18 15:50:00
4:20 PM,48.2,37.4,66,29.80,6.2,SSW,17.3,-,N/A,Rain,Light Rain,200,2012-11-18 16:20:00
4:50 PM,48.2,39.2,71,29.80,6.2,South,21.9,-,N/A,,Scattered Clouds,190,2012-11-18 16:50:00
5:20 PM,46.4,42.8,87,29.80,6.2,South,23.0,-,N/A,Rain,Light Rain,180,2012-11-18 17:20:00
5:50 PM,46,44,88,29.80,7,South,15.0,,,Rain,Rain,180,2012-11-18 17:50:00
5:50 PM,46.4,42.8,87,29.77,6.2,South,15.0,-,N/A,Rain,Rain,180,2012-11-18 17:50:00
6:20 PM,48.2,42.8,82,29.77,5.6,South,27.6,39.1,N/A,Rain,Rain,180,2012-11-18 18:20:00
6:50 PM,46.4,42.8,87,29.77,4.3,South,24.2,-,N/A,Rain,Rain,170,2012-11-18 18:50:00
7:20 PM,46.4,44.6,93,29.74,5.0,South,25.3,-,N/A,Rain,Rain,170,2012-11-18 19:20:00
7:50 PM,46.4,42.8,87,29.74,5.0,South,26.5,-,N/A,Rain,Rain,190,2012-11-18 19:50:00
8:20 PM,46.4,44.6,93,29.71,4.3,South,26.5,-,N/A,Rain,Rain,170,2012-11-18 20:20:00
8:50 PM,47,44,86,29.72,4,South,27.6,,,Rain,Rain,170,2012-11-18 20:50:00
8:50 PM,46.4,44.6,93,29.71,3.7,South,27.6,-,N/A,Rain,Rain,170,2012-11-18 20:50:00
9:20 PM,46.4,46.4,100,29.68,3.7,South,27.6,-,N/A,Rain,Rain,170,2012-11-18 21:20:00
9:50 PM,46.4,44.6,93,29.68,3.1,South,31.1,-,N/A,Rain,Rain,170,2012-11-18 21:50:00
10:50 PM,46.4,44.6,93,29.62,3.1,South,32.2,-,N/A,Rain,Rain,170,2012-11-18 22:50:00
11:50 PM,47,47,100,29.62,3,South,38.0,,,Rain,Rain,180,2012-11-18 23:50:00
11:50 PM,48.2,46.4,93,29.59,3.1,South,38.0,-,N/A,Rain,Rain,180,2012-11-18 23:50:00